Time;durP1;ratioP1;P1;durP2;ratioP2;P2;SDS_P1;SDS_P2;PMS_P1;PMS_P2;Temp;Humidity;BMP_temperature;BMP_pressure;BME280_temperature;BME280_humidity;BME280_pressure;Samples;Min_cycle;Max_cycle;Signal;HPM_P1;HPM_P2
2022/03/24 00:01:35;;;;;;;36.1;45.3;;;;;;;3.5;50.5;99660;;;;
2022/03/24 00:11:35;;;;;;;28;36.3;;;;;;;3.5;50.4;99660;;;;
2022/03/24 00:22:35;;;;;;;28;36.3;;;;;;;3.6;49.3;99650;;;;
2022/03/24 00:32:35;;;;;;;27.1;38.5;;;;;;;3.5;50.6;99660;;;;
2022/03/24 00:43:35;;;;;;;27.1;38.5;;;;;;;2.6;54.6;99650;;;;
2022/03/24 00:53:35;;;;;;;27.1;38.5;;;;;;;2.2;54.7;99650;;;;
2022/03/24 01:03:36;;;;;;;41;55.3;;;;;;;1.9;56.8;99640;;;;
2022/03/24 01:13:35;;;;;;;41;55.3;;;;;;;1.7;55.2;99640;;;;
2022/03/24 01:24:37;;;;;;;41;55.3;;;;;;;1.5;56.7;99640;;;;
2022/03/24 01:34:35;;;;;;;32.4;45.4;;;;;;;1.1;58;99640;;;;
2022/03/24 01:45:35;;;;;;;32.4;45.4;;;;;;;1;57.6;99630;;;;
2022/03/24 01:55:35;;;;;;;32.4;45.4;;;;;;;1;57.4;99630;;;;
2022/03/24 02:05:35;;;;;;;23.7;34.4;;;;;;;0.8;58.5;99630;;;;
2022/03/24 02:16:35;;;;;;;23.7;34.4;;;;;;;0.4;62.9;99620;;;;
2022/03/24 02:26:35;;;;;;;23.7;34.4;;;;;;;0.9;61.9;99620;;;;
2022/03/24 02:36:35;;;;;;;38.3;61.7;;;;;;;0.5;61.9;99620;;;;
2022/03/24 02:47:35;;;;;;;38.3;61.7;;;;;;;0.6;60.5;99630;;;;
2022/03/24 02:57:35;;;;;;;38.3;61.7;;;;;;;0.4;60.6;99640;;;;
2022/03/24 03:08:35;;;;;;;27.4;40.3;;;;;;;0;61.6;99650;;;;
2022/03/24 03:18:35;;;;;;;27.4;40.3;;;;;;;-0.2;63;99660;;;;
2022/03/24 03:28:35;;;;;;;27.4;40.3;;;;;;;-0.4;63.6;99660;;;;
2022/03/24 03:38:35;;;;;;;33.4;46.2;;;;;;;-0.3;66.8;99670;;;;
2022/03/24 03:49:35;;;;;;;33.4;46.2;;;;;;;-0.4;64.8;99680;;;;
2022/03/24 03:59:35;;;;;;;33.4;46.2;;;;;;;-0.6;64.5;99680;;;;
2022/03/24 04:09:35;;;;;;;34.3;48.1;;;;;;;-0.4;64.7;99690;;;;
2022/03/24 04:20:35;;;;;;;34.3;48.1;;;;;;;0;63.9;99690;;;;
2022/03/24 04:30:35;;;;;;;34.3;48.1;;;;;;;0;63.7;99690;;;;
2022/03/24 04:40:35;;;;;;;33.2;50.1;;;;;;;-0.2;63.1;99710;;;;
2022/03/24 04:51:36;;;;;;;33.2;50.1;;;;;;;-0.5;67.5;99730;;;;
2022/03/24 05:01:35;;;;;;;37.1;49;;;;;;;-0.5;67.1;99720;;;;
2022/03/24 05:12:35;;;;;;;37.1;49;;;;;;;-0.5;67.1;99730;;;;
2022/03/24 05:22:35;;;;;;;37.1;49;;;;;;;-0.3;66.4;99740;;;;
2022/03/24 05:32:37;;;;;;;38.2;59.2;;;;;;;0;66.9;99750;;;;
2022/03/24 05:42:35;;;;;;;38.2;59.2;;;;;;;0.5;65.6;99750;;;;
2022/03/24 05:53:35;;;;;;;38.2;59.2;;;;;;;1;65.1;99760;;;;
2022/03/24 06:04:35;;;;;;;47.8;62.1;;;;;;;1.4;64.6;99770;;;;
2022/03/24 06:14:36;;;;;;;47.8;62.1;;;;;;;1.9;63.4;99770;;;;
2022/03/24 06:24:35;;;;;;;47.8;62.1;;;;;;;2.3;62.4;99780;;;;
2022/03/24 06:35:35;;;;;;;65.1;81.4;;;;;;;3;61.2;99790;;;;
2022/03/24 06:45:35;;;;;;;65.1;81.4;;;;;;;3.5;59.9;99790;;;;
2022/03/24 06:55:35;;;;;;;65.1;81.4;;;;;;;4.2;59.4;99800;;;;
2022/03/24 07:05:35;;;;;;;70.9;88.2;;;;;;;4.9;57.6;99800;;;;
2022/03/24 07:16:35;;;;;;;70.9;88.2;;;;;;;5.8;55.1;99800;;;;
2022/03/24 07:26:35;;;;;;;70.9;88.2;;;;;;;6.4;51.6;99800;;;;
2022/03/24 07:37:35;;;;;;;50.8;70.4;;;;;;;7;48.8;99810;;;;
2022/03/24 07:47:36;;;;;;;50.8;70.4;;;;;;;7.6;47.7;99800;;;;
2022/03/24 07:57:35;;;;;;;50.8;70.4;;;;;;;8.1;47;99810;;;;
2022/03/24 08:08:35;;;;;;;39.8;51.3;;;;;;;8.6;46.1;99800;;;;
2022/03/24 08:19:35;;;;;;;39.8;51.3;;;;;;;9.1;45.1;99800;;;;
2022/03/24 08:30:35;;;;;;;39.9;51.1;;;;;;;9.5;43.6;99820;;;;
2022/03/24 08:40:35;;;;;;;39.9;51.1;;;;;;;9.8;43.6;99820;;;;
2022/03/24 08:50:35;;;;;;;39.9;51.1;;;;;;;10.1;42.2;99820;;;;
2022/03/24 09:01:35;;;;;;;31.9;41.1;;;;;;;10.3;41.3;99830;;;;
2022/03/24 09:11:35;;;;;;;31.9;41.1;;;;;;;10.6;40.4;99830;;;;
2022/03/24 09:21:35;;;;;;;31.9;41.1;;;;;;;10.7;39.9;99830;;;;
2022/03/24 09:32:35;;;;;;;26;35;;;;;;;10.8;39.3;99820;;;;
2022/03/24 09:43:36;;;;;;;26;35;;;;;;;11.1;38.3;99830;;;;
2022/03/24 09:54:35;;;;;;;26;35;;;;;;;11.6;36.4;99830;;;;
2022/03/24 10:04:35;;;;;;;23.8;29.9;;;;;;;11.6;36.6;99830;;;;
2022/03/24 10:15:35;;;;;;;23.8;29.9;;;;;;;12;36.4;99820;;;;
2022/03/24 10:26:35;;;;;;;23.8;29.9;;;;;;;12.5;33.4;99820;;;;
2022/03/24 10:37:35;;;;;;;21.7;34;;;;;;;12.7;29.3;99820;;;;
2022/03/24 10:48:35;;;;;;;21.7;34;;;;;;;12.8;29.1;99820;;;;
2022/03/24 10:59:36;;;;;;;21.7;34;;;;;;;12.7;29.7;99810;;;;
2022/03/24 11:09:35;;;;;;;15.1;21.3;;;;;;;12.9;29.9;99780;;;;
2022/03/24 11:20:36;;;;;;;15.1;21.3;;;;;;;13.2;29;99790;;;;
2022/03/24 11:30:35;;;;;;;16.5;22.2;;;;;;;13.2;29.9;99770;;;;
2022/03/24 11:40:35;;;;;;;16.5;22.2;;;;;;;13.8;27.3;99770;;;;
2022/03/24 11:51:35;;;;;;;16.5;22.2;;;;;;;14;26.6;99760;;;;
2022/03/24 12:02:35;;;;;;;14.1;17.5;;;;;;;14.2;25.9;99750;;;;
2022/03/24 12:12:35;;;;;;;14.1;17.5;;;;;;;14.4;25.6;99740;;;;
2022/03/24 12:23:35;;;;;;;14.1;17.5;;;;;;;14.6;25.2;99740;;;;
2022/03/24 12:33:35;;;;;;;10.2;15.8;;;;;;;14.4;25.2;99730;;;;
2022/03/24 12:43:35;;;;;;;10.2;15.8;;;;;;;14.8;24.8;99730;;;;
2022/03/24 12:54:35;;;;;;;10.2;15.8;;;;;;;14.9;23.7;99720;;;;
2022/03/24 13:04:35;;;;;;;7.6;11.2;;;;;;;14.6;23.4;99710;;;;
2022/03/24 13:15:35;;;;;;;7.6;11.2;;;;;;;14.7;24.2;99700;;;;
2022/03/24 13:25:36;;;;;;;7.6;11.2;;;;;;;14.9;24.7;99690;;;;
2022/03/24 13:35:37;;;;;;;4;7.3;;;;;;;15.1;24.5;99690;;;;
2022/03/24 13:46:35;;;;;;;4;7.3;;;;;;;15.3;26.1;99670;;;;
2022/03/24 13:56:35;;;;;;;4;7.3;;;;;;;15.4;26;99660;;;;
2022/03/24 14:07:35;;;;;;;4.4;9;;;;;;;15.4;27;99650;;;;
2022/03/24 14:18:35;;;;;;;4.4;9;;;;;;;15.3;28.5;99650;;;;
2022/03/24 14:28:35;;;;;;;4.4;9;;;;;;;15.4;28.8;99650;;;;
2022/03/24 14:38:35;;;;;;;3.9;10.8;;;;;;;15.4;29.5;99640;;;;
2022/03/24 14:49:35;;;;;;;3.9;10.8;;;;;;;15.3;29.7;99620;;;;
2022/03/24 14:59:35;;;;;;;3.9;10.8;;;;;;;15.4;29.6;99610;;;;
2022/03/24 15:09:35;;;;;;;2.1;4.8;;;;;;;15.3;30.2;99620;;;;
2022/03/24 15:19:37;;;;;;;2.1;4.8;;;;;;;15.1;31;99620;;;;
2022/03/24 15:30:36;;;;;;;2.9;6.8;;;;;;;16.1;30.2;99610;;;;
2022/03/24 15:40:35;;;;;;;2.9;6.8;;;;;;;17.9;27.3;99610;;;;
2022/03/24 15:51:35;;;;;;;2.9;6.8;;;;;;;17.6;28.1;99620;;;;
2022/03/24 16:01:35;;;;;;;4;11.1;;;;;;;17.8;27.7;99620;;;;
2022/03/24 16:12:35;;;;;;;4;11.1;;;;;;;17.9;27.7;99610;;;;
2022/03/24 16:22:36;;;;;;;4;11.1;;;;;;;16.7;28.9;99610;;;;
2022/03/24 16:33:35;;;;;;;5.7;10.6;;;;;;;15.4;30.8;99630;;;;
2022/03/24 16:43:35;;;;;;;5.7;10.6;;;;;;;14.7;31.7;99630;;;;
2022/03/24 16:53:35;;;;;;;5.7;10.6;;;;;;;13.4;33.3;99630;;;;
2022/03/24 17:03:35;;;;;;;28.1;38.8;;;;;;;12.4;35.8;99640;;;;
2022/03/24 17:13:36;;;;;;;28.1;38.8;;;;;;;11.6;37.4;99640;;;;
2022/03/24 17:24:35;;;;;;;28.1;38.8;;;;;;;11;38.9;99650;;;;
2022/03/24 17:34:35;;;;;;;24.8;29.8;;;;;;;10.6;40.1;99660;;;;
2022/03/24 17:44:35;;;;;;;24.8;29.8;;;;;;;10.3;40.6;99660;;;;
2022/03/24 17:55:36;;;;;;;24.8;29.8;;;;;;;9.8;41.6;99670;;;;
2022/03/24 18:06:36;;;;;;;27.7;32.9;;;;;;;9.3;43;99680;;;;
2022/03/24 18:16:35;;;;;;;27.7;32.9;;;;;;;8.9;43.5;99690;;;;
2022/03/24 18:26:35;;;;;;;27.7;32.9;;;;;;;8.5;44.4;99690;;;;
2022/03/24 18:37:35;;;;;;;20.9;26.1;;;;;;;7.9;45.4;99700;;;;
2022/03/24 18:47:35;;;;;;;20.9;26.1;;;;;;;7.6;46.1;99700;;;;
2022/03/24 18:58:35;;;;;;;20.9;26.1;;;;;;;7.3;46.8;99710;;;;
2022/03/24 19:09:35;;;;;;;21.8;29.7;;;;;;;7;48;99710;;;;
2022/03/24 19:20:35;;;;;;;21.8;29.7;;;;;;;6.9;48.4;99720;;;;
2022/03/24 19:30:38;;;;;;;16.9;21.8;;;;;;;6.7;48.9;99730;;;;
2022/03/24 19:41:35;;;;;;;16.9;21.8;;;;;;;6.4;49.6;99720;;;;
2022/03/24 19:52:35;;;;;;;16.9;21.8;;;;;;;6.4;51.1;99730;;;;
2022/03/24 20:02:36;;;;;;;31.4;39.5;;;;;;;6.1;51.1;99740;;;;
2022/03/24 20:13:38;;;;;;;31.4;39.5;;;;;;;5.7;51.8;99740;;;;
2022/03/24 20:24:35;;;;;;;31.4;39.5;;;;;;;5.5;53.3;99750;;;;
2022/03/24 20:46:35;;;;;;;19.6;26.3;;;;;;;5.4;53.8;99750;;;;
2022/03/24 20:57:35;;;;;;;19.6;26.3;;;;;;;5.5;55;99760;;;;
2022/03/24 21:08:36;;;;;;;21.6;33.3;;;;;;;5.2;54.6;99760;;;;
2022/03/24 21:19:35;;;;;;;21.6;33.3;;;;;;;4.9;56.1;99770;;;;
2022/03/24 21:29:35;;;;;;;22.8;29.7;;;;;;;4.7;56;99770;;;;
2022/03/24 21:40:36;;;;;;;22.8;29.7;;;;;;;4.3;57.6;99780;;;;
2022/03/24 21:51:39;;;;;;;22.8;29.7;;;;;;;4;57.4;99770;;;;
2022/03/24 22:01:36;;;;;;;21.7;30.1;;;;;;;3.7;58.2;99770;;;;
2022/03/24 22:12:35;;;;;;;21.7;30.1;;;;;;;3.4;59.4;99760;;;;
2022/03/24 22:22:35;;;;;;;21.7;30.1;;;;;;;3.1;60.3;99760;;;;
2022/03/24 22:32:35;;;;;;;23;32.8;;;;;;;2.8;60.6;99760;;;;
2022/03/24 22:43:35;;;;;;;23;32.8;;;;;;;2.5;61.1;99760;;;;
2022/03/24 22:54:36;;;;;;;23;32.8;;;;;;;2.2;62.5;99760;;;;
2022/03/24 23:04:35;;;;;;;23.6;31.6;;;;;;;2;63.8;99750;;;;
2022/03/24 23:14:35;;;;;;;23.6;31.6;;;;;;;1.7;63.7;99760;;;;
2022/03/24 23:24:35;;;;;;;23.6;31.6;;;;;;;1.7;64.7;99750;;;;
2022/03/24 23:35:36;;;;;;;22.9;34.8;;;;;;;1.3;65;99750;;;;
2022/03/24 23:46:35;;;;;;;22.9;34.8;;;;;;;1.1;65.9;99750;;;;
2022/03/24 23:57:35;;;;;;;22.9;34.8;;;;;;;0.9;68.2;99740;;;;
